createdAt,value
2022-10-04T00:00:41.907Z,95303.09
2022-10-04T00:03:49.239Z,95304.19
2022-10-04T00:06:21.456Z,95311.28
2022-10-04T00:08:58.308Z,95319.34
2022-10-04T00:11:35.246Z,95313.53
2022-10-04T00:14:27.073Z,95313.22
2022-10-04T00:16:55.113Z,95319.34
2022-10-04T00:19:47.225Z,95296.84
2022-10-04T00:22:25.863Z,95302.88
2022-10-04T00:25:07.935Z,95302.88
2022-10-04T00:27:37.600Z,95297.69
2022-10-04T00:30:04.482Z,95296.75
2022-10-04T00:32:40.579Z,95290.38
2022-10-04T00:35:25.791Z,95284.09
2022-10-04T00:38:17.224Z,95286.41
2022-10-04T00:40:55.485Z,95280.84
2022-10-04T00:43:30.435Z,95279.56
2022-10-04T00:46:18.806Z,95272.25
2022-10-04T00:48:55.534Z,95270.47
2022-10-04T00:51:39.528Z,95269.50
2022-10-04T00:54:30.408Z,95265.75
2022-10-04T00:57:21.591Z,95264.28
2022-10-04T00:59:54.734Z,95261.53
2022-10-04T01:03:17.123Z,95256.22
2022-10-04T01:05:51.289Z,95255.19
2022-10-04T01:08:39.708Z,95242.63
2022-10-04T01:11:13.531Z,95260.06
2022-10-04T01:13:45.908Z,95259.09
2022-10-04T01:16:27.643Z,95260.06
2022-10-04T01:18:54.800Z,95260.88
2022-10-04T01:21:21.584Z,95263.31
2022-10-04T01:23:58.468Z,95258.13
2022-10-04T01:26:32.442Z,95256.00
2022-10-04T01:29:02.171Z,95263.41
2022-10-04T01:31:31.223Z,95261.78
2022-10-04T01:34:00.120Z,95259.00
2022-10-04T01:36:28.034Z,95269.19
2022-10-04T01:38:55.814Z,95267.03
2022-10-04T01:41:47.107Z,95259.25
2022-10-04T01:44:33.005Z,95260.34
2022-10-04T01:47:06.305Z,95263.22
2022-10-04T01:49:36.793Z,95266.91
2022-10-04T01:52:35.921Z,95265.59
2022-10-04T01:55:09.645Z,95263.63
2022-10-04T01:58:03.158Z,95268.13
2022-10-04T02:01:14.951Z,95255.09
2022-10-04T02:04:09.324Z,95267.06
2022-10-04T02:06:40.276Z,95260.88
2022-10-04T02:09:12.463Z,95270.69
2022-10-04T02:11:42.365Z,95272.09
2022-10-04T02:14:16.271Z,95277.94
2022-10-04T02:16:46.313Z,95282.13
2022-10-04T02:19:15.409Z,95283.22
2022-10-04T02:21:43.547Z,95278.34
2022-10-04T02:24:12.264Z,95282.84
2022-10-04T02:26:39.543Z,95277.03
2022-10-04T02:29:06.483Z,95291.41
2022-10-04T02:31:52.312Z,95289.94
2022-10-04T02:34:19.471Z,95287.50
2022-10-04T02:36:47.853Z,95290.25
2022-10-04T02:39:25.127Z,95280.06
2022-10-04T02:42:03.008Z,95287.13
2022-10-04T02:45:00.535Z,95290.97
2022-10-04T02:47:36.930Z,95299.00
2022-10-04T02:50:30.958Z,95289.63
2022-10-04T02:53:05.384Z,95303.88
2022-10-04T02:55:33.418Z,95308.22
2022-10-04T02:58:00.796Z,95301.28
2022-10-04T03:00:31.150Z,95296.13
2022-10-04T03:03:30.170Z,95302.03
2022-10-04T03:06:02.376Z,95289.34
2022-10-04T03:08:32.495Z,95305.28
2022-10-04T03:11:00.110Z,95303.38
2022-10-04T03:13:27.835Z,95304.19
2022-10-04T03:15:55.326Z,95308.63
2022-10-04T03:18:23.137Z,95309.59
2022-10-04T03:20:50.397Z,95308.63
2022-10-04T03:23:19.978Z,95312.84
2022-10-04T03:26:00.448Z,95321.25
2022-10-04T03:28:28.629Z,95321.91
2022-10-04T03:30:55.938Z,95324.34
2022-10-04T03:33:25.794Z,95322.88
2022-10-04T03:35:55.888Z,95319.78
2022-10-04T03:38:26.532Z,95331.59
2022-10-04T03:40:59.462Z,95333.22
2022-10-04T03:43:30.539Z,95337.88
2022-10-04T03:46:00.326Z,95343.19
2022-10-04T03:48:50.383Z,95332.16
2022-10-04T03:51:21.444Z,95333.41
2022-10-04T03:53:57.510Z,95330.31
2022-10-04T03:56:31.486Z,95334.97
2022-10-04T03:58:59.036Z,95334.56
2022-10-04T04:01:47.689Z,95332.56
2022-10-04T04:04:50.590Z,95333.38
2022-10-04T04:07:24.831Z,95339.91
2022-10-04T04:10:21.657Z,95346.84
2022-10-04T04:13:04.891Z,95345.41
2022-10-04T04:15:34.368Z,95357.63
2022-10-04T04:18:05.777Z,95352.84
2022-10-04T04:20:37.434Z,95358.97
2022-10-04T04:23:16.207Z,95357.50
2022-10-04T04:25:47.293Z,95361.03
2022-10-04T04:28:51.668Z,95366.47
2022-10-04T04:31:24.337Z,95371.63
2022-10-04T04:34:02.215Z,95372.59
2022-10-04T04:36:31.409Z,95373.41
2022-10-04T04:39:27.107Z,95373.41
2022-10-04T04:41:54.176Z,95364.84
2022-10-04T04:44:21.667Z,95366.19
2022-10-04T04:46:48.830Z,95370.94
2022-10-04T04:49:19.089Z,95366.31
2022-10-04T04:51:51.566Z,95362.78
2022-10-04T04:54:24.114Z,95368.47
2022-10-04T04:56:53.121Z,95374.44
2022-10-04T04:59:23.059Z,95371.03
2022-10-04T05:01:50.572Z,95377.69
2022-10-04T05:04:21.388Z,95377.41
2022-10-04T05:07:04.461Z,95372.53
2022-10-04T05:09:36.463Z,95368.72
2022-10-04T05:12:16.116Z,95380.38
2022-10-04T05:14:49.579Z,95382.03
2022-10-04T05:17:24.144Z,95377.25
2022-10-04T05:19:52.810Z,95385.59
2022-10-04T05:22:23.138Z,95387.09
2022-10-04T05:24:54.844Z,95381.78
2022-10-04T05:27:33.089Z,95383.75
2022-10-04T05:30:13.435Z,95393.53
2022-10-04T05:32:46.143Z,95390.22
2022-10-04T05:35:23.897Z,95393.69
2022-10-04T05:37:53.490Z,95392.03
2022-10-04T05:40:32.636Z,95397.94
2022-10-04T05:42:59.691Z,95404.97
2022-10-04T05:45:29.147Z,95400.00
2022-10-04T05:47:57.323Z,95407.84
2022-10-04T05:50:40.766Z,95401.56
2022-10-04T05:53:07.474Z,95415.50
2022-10-04T05:55:51.210Z,95407.97
2022-10-04T05:58:35.576Z,95412.56
2022-10-04T06:01:02.387Z,95425.84
2022-10-04T06:04:00.050Z,95428.81
2022-10-04T06:06:40.408Z,95435.16
2022-10-04T06:09:09.830Z,95436.03
2022-10-04T06:11:44.520Z,95436.91
2022-10-04T06:14:31.258Z,95434.22
2022-10-04T06:17:16.000Z,95431.53
2022-10-04T06:20:02.748Z,95437.09
2022-10-04T06:22:30.790Z,95443.59
2022-10-04T06:25:03.339Z,95448.31
2022-10-04T06:27:47.020Z,95451.94
2022-10-04T06:30:16.213Z,95457.63
2022-10-04T06:32:49.255Z,95451.81
2022-10-04T06:35:23.250Z,95452.03
2022-10-04T06:38:12.062Z,95458.84
2022-10-04T06:40:57.028Z,95448.03
2022-10-04T06:43:35.963Z,95452.09
2022-10-04T06:46:07.281Z,95459.94
2022-10-04T06:49:04.688Z,95458.03
2022-10-04T06:52:08.299Z,95468.59
2022-10-04T06:54:38.648Z,95477.19
2022-10-04T06:57:48.735Z,95482.72
2022-10-04T07:00:24.297Z,95483.09
2022-10-04T07:02:55.001Z,95477.09
2022-10-04T07:05:45.367Z,95483.59
2022-10-04T07:08:34.308Z,95479.72
2022-10-04T07:11:14.963Z,95479.56
2022-10-04T07:14:04.166Z,95475.38
2022-10-04T07:16:48.579Z,95484.66
2022-10-04T07:19:25.014Z,95482.03
2022-10-04T07:22:08.467Z,95483.03
2022-10-04T07:24:44.333Z,95488.72
2022-10-04T07:27:17.553Z,95489.69
2022-10-04T07:29:46.785Z,95482.88
2022-10-04T07:32:21.713Z,95488.56
2022-10-04T07:35:14.839Z,95496.50
2022-10-04T07:38:10.958Z,95493.75
2022-10-04T07:40:41.594Z,95490.78
2022-10-04T07:43:22.575Z,95498.84
2022-10-04T07:45:50.330Z,95502.13
2022-10-04T07:48:23.546Z,95495.31
2022-10-04T07:51:15.684Z,95511.06
2022-10-04T07:54:07.098Z,95506.47
2022-10-04T07:56:47.708Z,95511.66
2022-10-04T07:59:35.060Z,95515.22
2022-10-04T08:02:07.971Z,95521.59
2022-10-04T08:04:59.021Z,95519.16
2022-10-04T08:08:04.189Z,95523.38
2022-10-04T08:10:49.121Z,95530.53
2022-10-04T08:13:45.559Z,95513.66
2022-10-04T08:16:49.033Z,95512.38
2022-10-04T08:19:21.633Z,95518.75
2022-10-04T08:22:04.278Z,95511.38
2022-10-04T08:24:57.059Z,95508.91
2022-10-04T08:27:39.743Z,95489.78
2022-10-04T08:30:15.761Z,95501.28
2022-10-04T08:33:01.867Z,95496.41
2022-10-04T08:35:39.611Z,95501.13
2022-10-04T08:38:18.537Z,95502.75
2022-10-04T08:41:18.700Z,95498.19
2022-10-04T08:44:23.409Z,95505.66
2022-10-04T08:46:56.313Z,95515.09
2022-10-04T08:50:01.442Z,95503.56
2022-10-04T08:52:37.473Z,95508.59
2022-10-04T08:55:37.437Z,95516.22
2022-10-04T08:58:49.172Z,95518.00
2022-10-04T09:02:12.349Z,95509.56
2022-10-04T09:05:14.620Z,95513.78
2022-10-04T09:08:26.408Z,95506.00
2022-10-04T09:11:11.504Z,95506.94
2022-10-04T09:13:44.208Z,95494.06
2022-10-04T09:16:20.062Z,95494.63
2022-10-04T09:18:56.265Z,95497.59
2022-10-04T09:21:38.233Z,95484.69
2022-10-04T09:24:43.866Z,95500.22
2022-10-04T09:27:36.780Z,95498.59
2022-10-04T09:30:15.378Z,95501.63
2022-10-04T09:33:00.318Z,95509.78
2022-10-04T09:35:44.916Z,95508.44
2022-10-04T09:38:36.586Z,95509.03
2022-10-04T09:41:22.106Z,95516.19
2022-10-04T09:44:19.939Z,95506.94
2022-10-04T09:47:31.996Z,95516.72
2022-10-04T09:50:14.374Z,95508.69
2022-10-04T09:53:03.042Z,95498.78
2022-10-04T09:56:02.384Z,95507.72
2022-10-04T09:58:51.705Z,95495.88
2022-10-04T10:01:39.400Z,95504.09
2022-10-04T10:04:24.603Z,95504.09
2022-10-04T10:06:54.169Z,95510.28
2022-10-04T10:09:57.177Z,95485.50
2022-10-04T10:13:05.447Z,95500.06
2022-10-04T10:15:58.356Z,95502.06
2022-10-04T10:18:40.631Z,95495.41
2022-10-04T10:21:21.413Z,95496.19
2022-10-04T10:24:20.479Z,95511.88
2022-10-04T10:26:47.334Z,95516.81
2022-10-04T10:29:17.034Z,95505.63
2022-10-04T10:32:02.523Z,95506.75
2022-10-04T10:34:47.380Z,95503.44
2022-10-04T10:37:45.921Z,95510.13
2022-10-04T10:40:32.783Z,95507.69
2022-10-04T10:43:03.339Z,95514.19
2022-10-04T10:45:44.929Z,95514.88
2022-10-04T10:48:22.530Z,95505.66
2022-10-04T10:51:11.146Z,95516.97
2022-10-04T10:54:00.370Z,95508.75
2022-10-04T10:56:37.508Z,95510.41
2022-10-04T10:59:50.719Z,95507.44
2022-10-04T11:02:50.326Z,95510.84
2022-10-04T11:05:45.573Z,95511.75
2022-10-04T11:08:30.035Z,95521.28
2022-10-04T11:11:14.793Z,95517.69
2022-10-04T11:13:54.876Z,95521.28
2022-10-04T11:16:47.694Z,95514.44
2022-10-04T11:19:53.936Z,95510.13
2022-10-04T11:22:49.509Z,95512.84
2022-10-04T11:25:36.270Z,95514.31
2022-10-04T11:28:20.929Z,95501.84
2022-10-04T11:31:01.567Z,95508.69
2022-10-04T11:33:46.935Z,95519.56
2022-10-04T11:36:19.338Z,95517.22
2022-10-04T11:39:01.437Z,95508.25
2022-10-04T11:41:50.455Z,95512.31
2022-10-04T11:44:35.130Z,95511.88
2022-10-04T11:47:08.778Z,95516.81
2022-10-04T11:49:44.631Z,95515.53
2022-10-04T11:52:30.183Z,95518.78
2022-10-04T11:55:35.295Z,95519.03
2022-10-04T11:58:16.676Z,95513.66
2022-10-04T12:01:30.498Z,95509.78
2022-10-04T12:04:16.134Z,95519.50
2022-10-04T12:07:26.834Z,95522.38
2022-10-04T12:10:11.120Z,95510.94
2022-10-04T12:12:52.933Z,95512.41
2022-10-04T12:15:52.164Z,95515.53
2022-10-04T12:18:46.312Z,95501.00
2022-10-04T12:21:27.723Z,95509.16
2022-10-04T12:24:28.435Z,95515.84
2022-10-04T12:27:12.493Z,95514.91
2022-10-04T12:30:02.767Z,95514.31
2022-10-04T12:32:36.925Z,95517.00
2022-10-04T12:35:18.659Z,95511.56
2022-10-04T12:38:08.033Z,95506.97
2022-10-04T12:40:45.599Z,95513.09
2022-10-04T12:43:30.985Z,95516.09
2022-10-04T12:46:17.676Z,95521.88
2022-10-04T12:48:54.032Z,95521.88
2022-10-04T12:51:27.939Z,95528.47
2022-10-04T12:54:24.010Z,95511.56
2022-10-04T12:57:14.763Z,95514.81
2022-10-04T12:59:44.598Z,95526.59
2022-10-04T13:02:28.389Z,95517.94
2022-10-04T13:04:59.331Z,95523.31
2022-10-04T13:07:28.793Z,95521.59
2022-10-04T13:10:29.220Z,95523.31
2022-10-04T13:13:34.354Z,95510.31
2022-10-04T13:19:30.201Z,95515.38
2022-10-04T13:22:26.929Z,95514.59
2022-10-04T13:25:25.965Z,95516.53
2022-10-04T13:28:02.614Z,95502.03
2022-10-04T13:30:43.020Z,95512.66
2022-10-04T13:33:10.138Z,95521.88
2022-10-04T13:36:14.419Z,95508.63
2022-10-04T13:39:02.650Z,95524.78
2022-10-04T13:41:38.212Z,95504.34
2022-10-04T13:44:10.866Z,95517.56
2022-10-04T13:46:40.443Z,95527.28
2022-10-04T13:49:29.754Z,95530.47
2022-10-04T13:52:39.330Z,95533.34
2022-10-04T13:55:24.700Z,95536.84
2022-10-04T13:58:01.473Z,95531.03
2022-10-04T14:01:13.133Z,95547.78
2022-10-04T14:04:12.097Z,95547.75
2022-10-04T14:06:49.459Z,95548.13
2022-10-04T14:10:06.992Z,95545.47
2022-10-04T14:12:45.982Z,95557.41
2022-10-04T14:15:25.883Z,95555.69
2022-10-04T14:18:26.249Z,95560.06
2022-10-04T14:21:18.994Z,95559.13
2022-10-04T14:24:10.462Z,95562.59
2022-10-04T14:26:58.638Z,95549.00
2022-10-04T14:29:31.495Z,95565.28
2022-10-04T14:32:08.546Z,95572.31
2022-10-04T14:35:12.424Z,95571.16
2022-10-04T14:37:50.102Z,95579.59
2022-10-04T14:40:35.566Z,95573.31
2022-10-04T14:43:34.841Z,95572.81
2022-10-04T14:46:05.100Z,95579.78
2022-10-04T14:49:05.323Z,95584.28
2022-10-04T14:51:44.418Z,95592.25
2022-10-04T14:54:21.521Z,95593.13
2022-10-04T14:57:06.551Z,95594.69
2022-10-04T14:59:59.639Z,95600.44
2022-10-04T15:02:32.518Z,95598.16
2022-10-04T15:05:20.060Z,95601.91
2022-10-04T15:08:11.583Z,95605.22
2022-10-04T15:10:48.347Z,95617.06
2022-10-04T15:13:32.115Z,95620.50
2022-10-04T15:16:15.918Z,95625.72
2022-10-04T15:18:52.569Z,95627.31
2022-10-04T15:21:48.071Z,95641.47
2022-10-04T15:24:17.840Z,95633.53
2022-10-04T15:27:22.025Z,95645.06
2022-10-04T15:29:51.887Z,95645.69
2022-10-04T15:32:36.045Z,95641.78
2022-10-04T15:35:36.727Z,95634.44
2022-10-04T15:38:45.053Z,95654.44
2022-10-04T15:41:18.896Z,95660.25
2022-10-04T15:44:14.218Z,95660.09
2022-10-04T15:46:57.279Z,95669.03
2022-10-04T15:49:27.296Z,95667.72
2022-10-04T15:52:13.516Z,95670.78
2022-10-04T15:55:19.558Z,95667.53
2022-10-04T15:58:39.104Z,95666.34
2022-10-04T16:01:19.951Z,95673.16
2022-10-04T16:04:10.233Z,95676.72
2022-10-04T16:07:19.667Z,95682.53
2022-10-04T16:10:16.885Z,95682.31
2022-10-04T16:13:17.622Z,95687.00
2022-10-04T16:15:50.564Z,95690.22
2022-10-04T16:18:17.336Z,95693.13
2022-10-04T16:21:16.080Z,95697.97
2022-10-04T16:23:44.524Z,95691.78
2022-10-04T16:26:34.283Z,95699.22
2022-10-04T16:29:22.499Z,95700.97
2022-10-04T16:32:12.320Z,95707.97
2022-10-04T16:34:51.251Z,95717.53
2022-10-04T16:37:24.017Z,95713.44
2022-10-04T16:40:20.082Z,95720.88
2022-10-04T16:42:56.086Z,95723.13
2022-10-04T16:45:32.982Z,95723.44
2022-10-04T16:48:06.192Z,95726.31
2022-10-04T16:50:59.169Z,95731.81
2022-10-04T16:53:49.172Z,95734.53
2022-10-04T16:56:19.919Z,95735.16
2022-10-04T16:59:04.700Z,95735.66
2022-10-04T17:01:54.920Z,95734.66
2022-10-04T17:04:31.125Z,95749.72
2022-10-04T17:07:02.498Z,95747.47
2022-10-04T17:09:48.031Z,95753.97
2022-10-04T17:12:24.320Z,95756.72
2022-10-04T17:15:09.311Z,95758.66
2022-10-04T17:17:45.041Z,95768.06
2022-10-04T17:20:29.729Z,95755.03
2022-10-04T17:23:29.139Z,95770.00
2022-10-04T17:26:14.215Z,95776.16
2022-10-04T17:29:01.009Z,95773.19
2022-10-04T17:31:35.796Z,95780.28
2022-10-04T17:34:39.935Z,95777.31
2022-10-04T17:37:57.443Z,95781.53
2022-10-04T17:40:43.836Z,95786.22
2022-10-04T17:43:22.636Z,95788.97
2022-10-04T17:46:07.612Z,95791.72
2022-10-04T17:49:48.881Z,95792.97
2022-10-04T17:52:38.953Z,95800.06
2022-10-04T17:55:28.986Z,95811.53
2022-10-04T17:58:40.964Z,95808.28
2022-10-04T18:01:17.190Z,95805.84
2022-10-04T18:03:47.173Z,95803.19
2022-10-04T18:06:36.265Z,95818.44
2022-10-04T18:09:19.695Z,95818.59
2022-10-04T18:11:51.682Z,95814.94
2022-10-04T18:14:30.420Z,95828.00
2022-10-04T18:17:03.449Z,95828.00
2022-10-04T18:19:45.161Z,95827.84
2022-10-04T18:22:15.239Z,95832.06
2022-10-04T18:24:44.401Z,95831.25
2022-10-04T18:27:25.341Z,95840.63
2022-10-04T18:30:15.688Z,95838.03
2022-10-04T18:32:48.991Z,95834.97
2022-10-04T18:35:31.156Z,95843.91
2022-10-04T18:38:21.117Z,95836.94
2022-10-04T18:40:58.110Z,95839.69
2022-10-04T18:43:30.573Z,95832.06
2022-10-04T18:46:14.531Z,95840.13
2022-10-04T18:48:54.513Z,95835.09
2022-10-04T18:51:26.433Z,95839.59
2022-10-04T18:54:30.944Z,95829.66
2022-10-04T18:57:54.973Z,95840.47
2022-10-04T19:00:41.150Z,95840.09
2022-10-04T19:03:40.299Z,95845.84
2022-10-04T19:06:10.312Z,95853.91
2022-10-04T19:08:53.579Z,95847.00
2022-10-04T19:11:23.133Z,95858.34
2022-10-04T19:14:37.523Z,95859.56
2022-10-04T19:17:25.113Z,95857.41
2022-10-04T19:19:56.795Z,95853.31
2022-10-04T19:22:35.443Z,95865.59
2022-10-04T19:25:21.449Z,95864.28
2022-10-04T19:28:15.618Z,95867.38
2022-10-04T19:30:54.230Z,95860.75
2022-10-04T19:33:45.933Z,95876.53
2022-10-04T19:36:24.514Z,95868.22
2022-10-04T19:39:12.615Z,95876.56
2022-10-04T19:41:55.167Z,95876.84
2022-10-04T19:44:52.244Z,95882.56
2022-10-04T19:47:31.117Z,95887.75
2022-10-04T19:50:21.400Z,95882.19
2022-10-04T19:53:03.753Z,95875.38
2022-10-04T19:55:48.800Z,95869.25
2022-10-04T19:58:40.978Z,95871.16
2022-10-04T20:01:12.701Z,95879.75
2022-10-04T20:03:40.070Z,95878.38
2022-10-04T20:06:07.736Z,95877.19
2022-10-04T20:08:49.675Z,95885.34
2022-10-04T20:11:21.212Z,95889.16
2022-10-04T20:14:03.300Z,95895.41
2022-10-04T20:16:49.229Z,95901.97
2022-10-04T20:19:20.438Z,95898.97
2022-10-04T20:21:47.423Z,95899.50
2022-10-04T20:24:41.668Z,95901.69
2022-10-04T20:27:23.827Z,95909.56
2022-10-04T20:29:53.382Z,95905.50
2022-10-04T20:32:30.089Z,95904.13
2022-10-04T20:34:58.373Z,95897.59
2022-10-04T20:38:27.416Z,95903.84
2022-10-04T20:40:47.660Z,95906.00
2022-10-04T20:43:14.409Z,95917.47
2022-10-04T20:45:44.844Z,95912.94
2022-10-04T20:48:17.328Z,95914.97
2022-10-04T20:50:49.402Z,95916.88
2022-10-04T20:53:16.168Z,95909.53
2022-10-04T20:55:45.614Z,95919.19
2022-10-04T20:58:18.076Z,95916.88
2022-10-04T21:00:54.197Z,95926.66
2022-10-04T21:03:22.087Z,95916.13
2022-10-04T21:06:10.551Z,95933.28
2022-10-04T21:08:38.495Z,95930.97
2022-10-04T21:11:25.571Z,95931.81
2022-10-04T21:13:55.494Z,95926.75
2022-10-04T21:16:39.087Z,95933.69
2022-10-04T21:19:33.931Z,95933.81
2022-10-04T21:22:02.536Z,95937.34
2022-10-04T21:24:42.245Z,95934.09
2022-10-04T21:27:24.985Z,95925.50
2022-10-04T21:29:54.646Z,95928.47
2022-10-04T21:32:22.187Z,95941.28
2022-10-04T21:34:53.452Z,95938.25
2022-10-04T21:37:21.123Z,95937.44
2022-10-04T21:39:48.063Z,95934.44
2022-10-04T21:42:14.922Z,95928.16
2022-10-04T21:44:41.807Z,95931.53
2022-10-04T21:47:09.112Z,95933.69
2022-10-04T21:49:36.183Z,95933.13
2022-10-04T21:52:03.194Z,95934.22
2022-10-04T21:54:29.966Z,95936.69
2022-10-04T21:56:56.895Z,95933.41
2022-10-04T21:59:24.152Z,95936.53
2022-10-04T22:01:50.999Z,95934.22
2022-10-04T22:04:18.169Z,95935.03
2022-10-04T22:06:45.420Z,95933.13
2022-10-04T22:09:12.466Z,95941.44
2022-10-04T22:11:39.273Z,95941.06
2022-10-04T22:14:06.134Z,95945.03
2022-10-04T22:16:32.953Z,95946.91
2022-10-04T22:18:59.835Z,95943.91
2022-10-04T22:21:26.732Z,95961.09
2022-10-04T22:23:53.560Z,95948.56
2022-10-04T22:26:22.869Z,95955.22
2022-10-04T22:28:53.455Z,95957.56
2022-10-04T22:31:28.661Z,95955.09
2022-10-04T22:33:56.816Z,95953.22
2022-10-04T22:36:23.863Z,95961.78
2022-10-04T22:38:53.635Z,95966.13
2022-10-04T22:41:20.499Z,95965.56
2022-10-04T22:43:49.073Z,95951.25
2022-10-04T22:46:18.498Z,95961.22
2022-10-04T22:48:48.256Z,95956.44
2022-10-04T22:51:15.551Z,95970.03
2022-10-04T22:53:47.943Z,95970.41
2022-10-04T22:56:15.445Z,95969.34
2022-10-04T22:58:42.844Z,95955.28
2022-10-04T23:01:18.321Z,95968.66
2022-10-04T23:03:47.116Z,95954.47
2022-10-04T23:06:14.577Z,95970.41
2022-10-04T23:08:42.404Z,95968.91
2022-10-04T23:11:10.480Z,95964.69
2022-10-04T23:13:37.962Z,95961.53
2022-10-04T23:16:16.948Z,95963.31
2022-10-04T23:18:43.928Z,95963.31
2022-10-04T23:21:19.890Z,95966.97
2022-10-04T23:23:47.914Z,95968.00
2022-10-04T23:26:22.755Z,95955.59
2022-10-04T23:28:50.331Z,95966.06
2022-10-04T23:31:23.152Z,95969.59
2022-10-04T23:33:52.157Z,95970.94
2022-10-04T23:36:19.252Z,95968.47
2022-10-04T23:38:54.319Z,95974.72
2022-10-04T23:41:21.151Z,95978.59
2022-10-04T23:43:49.499Z,95975.19
2022-10-04T23:46:19.577Z,95982.78
2022-10-04T23:48:46.895Z,95984.44
2022-10-04T23:51:18.679Z,95982.94
2022-10-04T23:53:48.319Z,95985.09
2022-10-04T23:56:25.241Z,95982.06
2022-10-04T23:58:55.153Z,95979.13
